sensor_id;sensor_type;location;lat;lon;timestamp;P1;durP1;ratioP1;P2;durP2;ratioP2
5273;SDS011;56254;50.956;7.010;2023-01-20T00:01:05;17.90;;;9.70;;
5273;SDS011;56254;50.956;7.010;2023-01-20T00:03:34;17.73;;;8.20;;
5273;SDS011;56254;50.956;7.010;2023-01-20T00:06:00;24.17;;;10.10;;
5273;SDS011;56254;50.956;7.010;2023-01-20T00:08:26;22.87;;;8.73;;
5273;SDS011;56254;50.956;7.010;2023-01-20T00:10:52;31.63;;;10.20;;
5273;SDS011;56254;50.956;7.010;2023-01-20T00:13:18;20.93;;;9.23;;
5273;SDS011;56254;50.956;7.010;2023-01-20T00:15:44;19.30;;;9.97;;
5273;SDS011;56254;50.956;7.010;2023-01-20T00:18:09;25.50;;;7.67;;
5273;SDS011;56254;50.956;7.010;2023-01-20T00:20:36;15.97;;;8.10;;
5273;SDS011;56254;50.956;7.010;2023-01-20T00:23:02;16.63;;;8.83;;
5273;SDS011;56254;50.956;7.010;2023-01-20T00:25:28;20.40;;;9.90;;
5273;SDS011;56254;50.956;7.010;2023-01-20T00:27:53;25.10;;;9.30;;
5273;SDS011;56254;50.956;7.010;2023-01-20T00:30:19;18.93;;;8.43;;
5273;SDS011;56254;50.956;7.010;2023-01-20T00:32:46;19.93;;;10.00;;
5273;SDS011;56254;50.956;7.010;2023-01-20T00:35:11;15.30;;;8.40;;
5273;SDS011;56254;50.956;7.010;2023-01-20T00:37:37;22.73;;;9.50;;
5273;SDS011;56254;50.956;7.010;2023-01-20T00:40:04;29.07;;;9.17;;
5273;SDS011;56254;50.956;7.010;2023-01-20T00:42:30;21.67;;;9.30;;
5273;SDS011;56254;50.956;7.010;2023-01-20T00:44:56;26.60;;;9.33;;
5273;SDS011;56254;50.956;7.010;2023-01-20T00:47:22;32.40;;;10.27;;
5273;SDS011;56254;50.956;7.010;2023-01-20T00:49:47;20.17;;;9.57;;
5273;SDS011;56254;50.956;7.010;2023-01-20T00:52:14;17.87;;;8.90;;
5273;SDS011;56254;50.956;7.010;2023-01-20T00:54:42;23.80;;;10.37;;
5273;SDS011;56254;50.956;7.010;2023-01-20T00:57:09;21.27;;;10.57;;
5273;SDS011;56254;50.956;7.010;2023-01-20T00:59:41;15.27;;;8.40;;
5273;SDS011;56254;50.956;7.010;2023-01-20T01:02:07;23.30;;;9.30;;
5273;SDS011;56254;50.956;7.010;2023-01-20T01:04:32;29.20;;;10.47;;
5273;SDS011;56254;50.956;7.010;2023-01-20T01:06:58;25.67;;;10.73;;
5273;SDS011;56254;50.956;7.010;2023-01-20T01:09:23;28.77;;;11.17;;
5273;SDS011;56254;50.956;7.010;2023-01-20T01:11:50;22.80;;;9.70;;
5273;SDS011;56254;50.956;7.010;2023-01-20T01:14:16;30.93;;;10.37;;
5273;SDS011;56254;50.956;7.010;2023-01-20T01:16:43;23.93;;;9.83;;
5273;SDS011;56254;50.956;7.010;2023-01-20T01:19:10;27.10;;;9.80;;
5273;SDS011;56254;50.956;7.010;2023-01-20T01:21:35;28.17;;;10.40;;
5273;SDS011;56254;50.956;7.010;2023-01-20T01:24:03;26.43;;;10.90;;
5273;SDS011;56254;50.956;7.010;2023-01-20T01:26:29;30.60;;;10.57;;
5273;SDS011;56254;50.956;7.010;2023-01-20T01:28:54;29.67;;;9.60;;
5273;SDS011;56254;50.956;7.010;2023-01-20T01:31:20;28.73;;;10.37;;
5273;SDS011;56254;50.956;7.010;2023-01-20T01:33:50;20.20;;;9.20;;
5273;SDS011;56254;50.956;7.010;2023-01-20T01:36:16;25.83;;;10.93;;
5273;SDS011;56254;50.956;7.010;2023-01-20T01:38:43;38.77;;;10.17;;
5273;SDS011;56254;50.956;7.010;2023-01-20T01:41:10;28.23;;;10.33;;
5273;SDS011;56254;50.956;7.010;2023-01-20T01:43:57;44.33;;;10.83;;
5273;SDS011;56254;50.956;7.010;2023-01-20T01:46:25;21.43;;;9.20;;
5273;SDS011;56254;50.956;7.010;2023-01-20T01:48:50;26.70;;;11.07;;
5273;SDS011;56254;50.956;7.010;2023-01-20T01:51:20;34.00;;;10.30;;
5273;SDS011;56254;50.956;7.010;2023-01-20T01:53:52;22.40;;;10.27;;
5273;SDS011;56254;50.956;7.010;2023-01-20T01:56:21;25.43;;;11.57;;
5273;SDS011;56254;50.956;7.010;2023-01-20T01:58:50;19.70;;;11.10;;
5273;SDS011;56254;50.956;7.010;2023-01-20T02:01:19;27.83;;;12.53;;
5273;SDS011;56254;50.956;7.010;2023-01-20T02:03:51;32.27;;;12.00;;
5273;SDS011;56254;50.956;7.010;2023-01-20T02:06:34;31.43;;;10.60;;
5273;SDS011;56254;50.956;7.010;2023-01-20T02:09:06;24.37;;;11.37;;
5273;SDS011;56254;50.956;7.010;2023-01-20T02:11:37;28.80;;;11.47;;
5273;SDS011;56254;50.956;7.010;2023-01-20T02:14:09;37.50;;;11.43;;
5273;SDS011;56254;50.956;7.010;2023-01-20T02:35:12;24.50;;;10.33;;
5273;SDS011;56254;50.956;7.010;2023-01-20T02:38:15;21.97;;;10.00;;
5273;SDS011;56254;50.956;7.010;2023-01-20T02:40:56;21.67;;;10.60;;
5273;SDS011;56254;50.956;7.010;2023-01-20T02:43:51;50.47;;;10.70;;
5273;SDS011;56254;50.956;7.010;2023-01-20T02:46:24;29.07;;;10.10;;
5273;SDS011;56254;50.956;7.010;2023-01-20T02:49:12;28.40;;;11.47;;
5273;SDS011;56254;50.956;7.010;2023-01-20T02:51:53;31.77;;;11.47;;
5273;SDS011;56254;50.956;7.010;2023-01-20T02:54:22;37.83;;;11.60;;
5273;SDS011;56254;50.956;7.010;2023-01-20T02:56:51;20.70;;;9.83;;
5273;SDS011;56254;50.956;7.010;2023-01-20T02:59:21;29.03;;;12.10;;
5273;SDS011;56254;50.956;7.010;2023-01-20T03:01:52;27.27;;;11.43;;
5273;SDS011;56254;50.956;7.010;2023-01-20T03:04:26;21.90;;;10.03;;
5273;SDS011;56254;50.956;7.010;2023-01-20T03:06:54;20.77;;;11.73;;
5273;SDS011;56254;50.956;7.010;2023-01-20T03:09:25;25.47;;;10.47;;
5273;SDS011;56254;50.956;7.010;2023-01-20T03:11:59;22.60;;;11.70;;
5273;SDS011;56254;50.956;7.010;2023-01-20T03:14:29;28.10;;;10.23;;
5273;SDS011;56254;50.956;7.010;2023-01-20T03:16:55;22.00;;;10.47;;
5273;SDS011;56254;50.956;7.010;2023-01-20T03:19:21;27.10;;;11.20;;
5273;SDS011;56254;50.956;7.010;2023-01-20T03:21:47;23.70;;;11.30;;
5273;SDS011;56254;50.956;7.010;2023-01-20T03:24:12;25.47;;;11.27;;
5273;SDS011;56254;50.956;7.010;2023-01-20T03:26:38;32.60;;;10.50;;
5273;SDS011;56254;50.956;7.010;2023-01-20T03:29:05;26.10;;;10.30;;
5273;SDS011;56254;50.956;7.010;2023-01-20T03:31:37;23.07;;;10.83;;
5273;SDS011;56254;50.956;7.010;2023-01-20T03:34:06;43.20;;;11.07;;
5273;SDS011;56254;50.956;7.010;2023-01-20T03:36:40;20.43;;;9.83;;
5273;SDS011;56254;50.956;7.010;2023-01-20T03:39:07;27.83;;;11.27;;
5273;SDS011;56254;50.956;7.010;2023-01-20T03:44:05;20.50;;;10.80;;
5273;SDS011;56254;50.956;7.010;2023-01-20T03:49:45;25.33;;;10.63;;
5273;SDS011;56254;50.956;7.010;2023-01-20T03:52:24;29.30;;;9.03;;
5273;SDS011;56254;50.956;7.010;2023-01-20T03:55:03;20.83;;;10.03;;
5273;SDS011;56254;50.956;7.010;2023-01-20T03:57:37;18.07;;;10.47;;
5273;SDS011;56254;50.956;7.010;2023-01-20T04:00:08;32.13;;;11.70;;
5273;SDS011;56254;50.956;7.010;2023-01-20T04:02:35;21.07;;;10.40;;
5273;SDS011;56254;50.956;7.010;2023-01-20T04:05:03;19.67;;;10.57;;
5273;SDS011;56254;50.956;7.010;2023-01-20T04:07:30;24.40;;;11.60;;
5273;SDS011;56254;50.956;7.010;2023-01-20T04:09:59;33.37;;;11.50;;
5273;SDS011;56254;50.956;7.010;2023-01-20T04:12:29;22.30;;;10.67;;
5273;SDS011;56254;50.956;7.010;2023-01-20T04:14:55;27.40;;;10.80;;
5273;SDS011;56254;50.956;7.010;2023-01-20T04:17:24;26.53;;;10.60;;
5273;SDS011;56254;50.956;7.010;2023-01-20T04:19:52;21.50;;;9.60;;
5273;SDS011;56254;50.956;7.010;2023-01-20T04:22:20;24.57;;;11.27;;
5273;SDS011;56254;50.956;7.010;2023-01-20T04:25:06;23.87;;;10.60;;
5273;SDS011;56254;50.956;7.010;2023-01-20T04:27:44;26.03;;;9.90;;
5273;SDS011;56254;50.956;7.010;2023-01-20T04:30:11;24.10;;;11.43;;
5273;SDS011;56254;50.956;7.010;2023-01-20T04:32:37;30.23;;;11.23;;
5273;SDS011;56254;50.956;7.010;2023-01-20T04:35:03;24.33;;;10.40;;
5273;SDS011;56254;50.956;7.010;2023-01-20T04:37:29;19.80;;;11.40;;
5273;SDS011;56254;50.956;7.010;2023-01-20T04:39:55;19.93;;;10.40;;
5273;SDS011;56254;50.956;7.010;2023-01-20T04:42:20;26.93;;;11.10;;
5273;SDS011;56254;50.956;7.010;2023-01-20T04:44:47;24.67;;;11.43;;
5273;SDS011;56254;50.956;7.010;2023-01-20T04:47:13;20.27;;;10.07;;
5273;SDS011;56254;50.956;7.010;2023-01-20T04:49:39;37.47;;;13.27;;
5273;SDS011;56254;50.956;7.010;2023-01-20T04:52:04;19.83;;;10.40;;
5273;SDS011;56254;50.956;7.010;2023-01-20T04:54:30;35.97;;;13.40;;
5273;SDS011;56254;50.956;7.010;2023-01-20T04:56:56;24.73;;;11.27;;
5273;SDS011;56254;50.956;7.010;2023-01-20T04:59:21;34.00;;;13.90;;
5273;SDS011;56254;50.956;7.010;2023-01-20T05:01:47;40.00;;;13.63;;
5273;SDS011;56254;50.956;7.010;2023-01-20T05:04:13;25.00;;;11.40;;
5273;SDS011;56254;50.956;7.010;2023-01-20T05:06:38;25.53;;;10.90;;
5273;SDS011;56254;50.956;7.010;2023-01-20T05:09:07;37.90;;;13.27;;
5273;SDS011;56254;50.956;7.010;2023-01-20T05:11:37;28.93;;;13.30;;
5273;SDS011;56254;50.956;7.010;2023-01-20T05:14:02;26.47;;;12.60;;
5273;SDS011;56254;50.956;7.010;2023-01-20T05:16:29;32.63;;;13.00;;
5273;SDS011;56254;50.956;7.010;2023-01-20T05:18:56;37.20;;;12.87;;
5273;SDS011;56254;50.956;7.010;2023-01-20T05:21:22;31.17;;;12.10;;
5273;SDS011;56254;50.956;7.010;2023-01-20T05:24:05;25.70;;;11.77;;
5273;SDS011;56254;50.956;7.010;2023-01-20T05:26:31;25.67;;;13.07;;
5273;SDS011;56254;50.956;7.010;2023-01-20T05:28:57;25.77;;;12.40;;
5273;SDS011;56254;50.956;7.010;2023-01-20T05:31:22;32.43;;;14.10;;
5273;SDS011;56254;50.956;7.010;2023-01-20T05:33:48;27.63;;;14.03;;
5273;SDS011;56254;50.956;7.010;2023-01-20T05:36:14;31.07;;;12.73;;
5273;SDS011;56254;50.956;7.010;2023-01-20T05:38:39;36.83;;;14.80;;
5273;SDS011;56254;50.956;7.010;2023-01-20T05:41:06;31.80;;;12.83;;
5273;SDS011;56254;50.956;7.010;2023-01-20T05:43:33;31.53;;;12.87;;
5273;SDS011;56254;50.956;7.010;2023-01-20T05:45:59;32.17;;;12.53;;
5273;SDS011;56254;50.956;7.010;2023-01-20T05:48:25;27.83;;;11.40;;
5273;SDS011;56254;50.956;7.010;2023-01-20T05:50:50;25.77;;;12.93;;
5273;SDS011;56254;50.956;7.010;2023-01-20T05:53:16;28.10;;;13.00;;
5273;SDS011;56254;50.956;7.010;2023-01-20T05:55:47;27.60;;;12.17;;
5273;SDS011;56254;50.956;7.010;2023-01-20T05:58:13;26.33;;;12.63;;
5273;SDS011;56254;50.956;7.010;2023-01-20T06:00:39;33.63;;;12.90;;
5273;SDS011;56254;50.956;7.010;2023-01-20T06:03:04;21.77;;;11.30;;
5273;SDS011;56254;50.956;7.010;2023-01-20T06:05:31;18.43;;;9.30;;
5273;SDS011;56254;50.956;7.010;2023-01-20T06:07:57;21.53;;;8.93;;
5273;SDS011;56254;50.956;7.010;2023-01-20T06:10:23;16.27;;;9.03;;
5273;SDS011;56254;50.956;7.010;2023-01-20T06:12:52;15.63;;;8.10;;
5273;SDS011;56254;50.956;7.010;2023-01-20T06:15:18;22.60;;;9.23;;
5273;SDS011;56254;50.956;7.010;2023-01-20T06:17:51;32.90;;;9.90;;
5273;SDS011;56254;50.956;7.010;2023-01-20T06:20:17;18.37;;;7.77;;
5273;SDS011;56254;50.956;7.010;2023-01-20T06:22:43;33.10;;;7.40;;
5273;SDS011;56254;50.956;7.010;2023-01-20T06:25:10;16.57;;;9.00;;
5273;SDS011;56254;50.956;7.010;2023-01-20T06:27:35;17.00;;;7.97;;
5273;SDS011;56254;50.956;7.010;2023-01-20T06:30:02;14.40;;;7.90;;
5273;SDS011;56254;50.956;7.010;2023-01-20T06:32:29;15.27;;;6.90;;
5273;SDS011;56254;50.956;7.010;2023-01-20T06:34:54;15.60;;;7.40;;
5273;SDS011;56254;50.956;7.010;2023-01-20T06:37:20;12.30;;;7.13;;
5273;SDS011;56254;50.956;7.010;2023-01-20T06:39:46;13.93;;;7.20;;
5273;SDS011;56254;50.956;7.010;2023-01-20T06:42:11;23.60;;;7.50;;
5273;SDS011;56254;50.956;7.010;2023-01-20T06:44:38;22.87;;;8.20;;
5273;SDS011;56254;50.956;7.010;2023-01-20T06:47:03;24.63;;;9.20;;
5273;SDS011;56254;50.956;7.010;2023-01-20T06:49:29;13.60;;;8.10;;
5273;SDS011;56254;50.956;7.010;2023-01-20T06:51:57;15.23;;;7.80;;
5273;SDS011;56254;50.956;7.010;2023-01-20T06:54:23;17.83;;;7.63;;
5273;SDS011;56254;50.956;7.010;2023-01-20T06:56:49;15.37;;;8.10;;
5273;SDS011;56254;50.956;7.010;2023-01-20T06:59:15;15.57;;;8.03;;
5273;SDS011;56254;50.956;7.010;2023-01-20T07:01:42;23.80;;;7.50;;
5273;SDS011;56254;50.956;7.010;2023-01-20T07:04:08;19.43;;;7.83;;
5273;SDS011;56254;50.956;7.010;2023-01-20T07:06:38;15.93;;;7.93;;
5273;SDS011;56254;50.956;7.010;2023-01-20T07:09:06;14.17;;;6.77;;
5273;SDS011;56254;50.956;7.010;2023-01-20T07:11:33;14.67;;;7.20;;
5273;SDS011;56254;50.956;7.010;2023-01-20T07:14:00;16.23;;;7.03;;
5273;SDS011;56254;50.956;7.010;2023-01-20T07:16:26;16.00;;;7.80;;
5273;SDS011;56254;50.956;7.010;2023-01-20T07:18:52;15.93;;;7.90;;
5273;SDS011;56254;50.956;7.010;2023-01-20T07:21:18;18.80;;;7.93;;
5273;SDS011;56254;50.956;7.010;2023-01-20T07:23:44;16.50;;;6.90;;
5273;SDS011;56254;50.956;7.010;2023-01-20T07:26:11;20.30;;;7.97;;
5273;SDS011;56254;50.956;7.010;2023-01-20T07:28:40;15.57;;;6.87;;
5273;SDS011;56254;50.956;7.010;2023-01-20T07:31:12;17.97;;;7.47;;
5273;SDS011;56254;50.956;7.010;2023-01-20T07:33:43;12.87;;;6.13;;
5273;SDS011;56254;50.956;7.010;2023-01-20T07:36:09;12.80;;;6.30;;
5273;SDS011;56254;50.956;7.010;2023-01-20T07:38:36;17.80;;;6.00;;
5273;SDS011;56254;50.956;7.010;2023-01-20T07:41:02;17.93;;;8.30;;
5273;SDS011;56254;50.956;7.010;2023-01-20T07:43:30;14.37;;;6.20;;
5273;SDS011;56254;50.956;7.010;2023-01-20T07:45:57;20.93;;;6.50;;
5273;SDS011;56254;50.956;7.010;2023-01-20T07:48:25;16.13;;;7.13;;
5273;SDS011;56254;50.956;7.010;2023-01-20T07:50:55;23.07;;;6.97;;
5273;SDS011;56254;50.956;7.010;2023-01-20T07:53:39;19.00;;;6.90;;
5273;SDS011;56254;50.956;7.010;2023-01-20T07:56:09;9.00;;;6.17;;
5273;SDS011;56254;50.956;7.010;2023-01-20T07:58:37;12.70;;;7.13;;
5273;SDS011;56254;50.956;7.010;2023-01-20T08:01:13;10.37;;;6.67;;
5273;SDS011;56254;50.956;7.010;2023-01-20T08:03:44;15.23;;;6.63;;
5273;SDS011;56254;50.956;7.010;2023-01-20T08:06:10;20.73;;;7.50;;
5273;SDS011;56254;50.956;7.010;2023-01-20T08:08:38;13.30;;;7.07;;
5273;SDS011;56254;50.956;7.010;2023-01-20T08:11:04;17.00;;;6.97;;
5273;SDS011;56254;50.956;7.010;2023-01-20T08:13:31;13.77;;;6.70;;
5273;SDS011;56254;50.956;7.010;2023-01-20T08:16:03;18.27;;;7.30;;
5273;SDS011;56254;50.956;7.010;2023-01-20T08:18:31;10.87;;;6.70;;
5273;SDS011;56254;50.956;7.010;2023-01-20T08:20:58;24.93;;;7.43;;
5273;SDS011;56254;50.956;7.010;2023-01-20T08:23:26;17.67;;;8.13;;
5273;SDS011;56254;50.956;7.010;2023-01-20T08:25:58;17.77;;;7.17;;
5273;SDS011;56254;50.956;7.010;2023-01-20T08:28:26;16.20;;;7.63;;
5273;SDS011;56254;50.956;7.010;2023-01-20T08:30:53;16.13;;;6.57;;
5273;SDS011;56254;50.956;7.010;2023-01-20T08:33:31;14.40;;;7.17;;
5273;SDS011;56254;50.956;7.010;2023-01-20T08:36:02;13.40;;;6.90;;
5273;SDS011;56254;50.956;7.010;2023-01-20T08:38:31;22.67;;;10.80;;
5273;SDS011;56254;50.956;7.010;2023-01-20T08:40:58;19.30;;;7.57;;
5273;SDS011;56254;50.956;7.010;2023-01-20T08:43:23;15.87;;;5.60;;
5273;SDS011;56254;50.956;7.010;2023-01-20T08:45:59;13.60;;;6.47;;
5273;SDS011;56254;50.956;7.010;2023-01-20T08:48:26;14.90;;;7.03;;
5273;SDS011;56254;50.956;7.010;2023-01-20T08:50:52;13.53;;;6.70;;
5273;SDS011;56254;50.956;7.010;2023-01-20T08:53:17;18.33;;;6.73;;
5273;SDS011;56254;50.956;7.010;2023-01-20T08:55:43;23.00;;;7.30;;
5273;SDS011;56254;50.956;7.010;2023-01-20T08:58:17;14.97;;;7.60;;
5273;SDS011;56254;50.956;7.010;2023-01-20T09:00:43;16.20;;;7.60;;
5273;SDS011;56254;50.956;7.010;2023-01-20T09:03:09;14.90;;;7.20;;
5273;SDS011;56254;50.956;7.010;2023-01-20T09:05:36;17.90;;;7.33;;
5273;SDS011;56254;50.956;7.010;2023-01-20T09:08:02;17.50;;;7.30;;
5273;SDS011;56254;50.956;7.010;2023-01-20T09:10:28;15.70;;;7.17;;
5273;SDS011;56254;50.956;7.010;2023-01-20T09:12:56;28.90;;;8.40;;
5273;SDS011;56254;50.956;7.010;2023-01-20T09:15:22;18.00;;;7.63;;
5273;SDS011;56254;50.956;7.010;2023-01-20T09:17:47;19.43;;;7.00;;
5273;SDS011;56254;50.956;7.010;2023-01-20T09:20:13;20.00;;;7.20;;
5273;SDS011;56254;50.956;7.010;2023-01-20T09:22:39;14.77;;;7.10;;
5273;SDS011;56254;50.956;7.010;2023-01-20T09:25:05;23.77;;;7.60;;
5273;SDS011;56254;50.956;7.010;2023-01-20T09:27:32;32.63;;;8.10;;
5273;SDS011;56254;50.956;7.010;2023-01-20T09:29:58;42.97;;;6.80;;
5273;SDS011;56254;50.956;7.010;2023-01-20T09:32:23;12.87;;;6.87;;
5273;SDS011;56254;50.956;7.010;2023-01-20T09:34:49;11.20;;;6.10;;
5273;SDS011;56254;50.956;7.010;2023-01-20T09:37:15;13.30;;;6.70;;
5273;SDS011;56254;50.956;7.010;2023-01-20T09:39:59;14.43;;;6.80;;
5273;SDS011;56254;50.956;7.010;2023-01-20T09:43:47;11.50;;;5.97;;
5273;SDS011;56254;50.956;7.010;2023-01-20T09:46:09;17.53;;;7.57;;
5273;SDS011;56254;50.956;7.010;2023-01-20T09:52:08;9.33;;;5.60;;
5273;SDS011;56254;50.956;7.010;2023-01-20T09:55:55;16.50;;;7.40;;
5273;SDS011;56254;50.956;7.010;2023-01-20T10:01:05;13.10;;;6.20;;
5273;SDS011;56254;50.956;7.010;2023-01-20T10:06:46;12.40;;;5.53;;
5273;SDS011;56254;50.956;7.010;2023-01-20T10:11:45;11.27;;;6.13;;
5273;SDS011;56254;50.956;7.010;2023-01-20T10:19:25;14.07;;;7.17;;
5273;SDS011;56254;50.956;7.010;2023-01-20T10:22:16;10.53;;;6.57;;
5273;SDS011;56254;50.956;7.010;2023-01-20T10:24:56;14.53;;;6.40;;
5273;SDS011;56254;50.956;7.010;2023-01-20T10:27:50;11.30;;;6.87;;
5273;SDS011;56254;50.956;7.010;2023-01-20T10:30:31;16.07;;;6.27;;
5273;SDS011;56254;50.956;7.010;2023-01-20T10:35:55;20.23;;;6.17;;
5273;SDS011;56254;50.956;7.010;2023-01-20T10:41:15;20.80;;;8.00;;
5273;SDS011;56254;50.956;7.010;2023-01-20T10:44:11;34.70;;;5.90;;
5273;SDS011;56254;50.956;7.010;2023-01-20T10:54:58;25.40;;;7.50;;
5273;SDS011;56254;50.956;7.010;2023-01-20T10:57:25;14.40;;;7.07;;
5273;SDS011;56254;50.956;7.010;2023-01-20T11:02:39;23.73;;;7.47;;
5273;SDS011;56254;50.956;7.010;2023-01-20T11:07:40;23.47;;;7.87;;
5273;SDS011;56254;50.956;7.010;2023-01-20T11:10:12;19.47;;;6.50;;
5273;SDS011;56254;50.956;7.010;2023-01-20T11:12:39;15.67;;;7.20;;
5273;SDS011;56254;50.956;7.010;2023-01-20T11:15:18;15.30;;;7.30;;
5273;SDS011;56254;50.956;7.010;2023-01-20T11:17:46;14.33;;;6.73;;
5273;SDS011;56254;50.956;7.010;2023-01-20T11:23:20;26.67;;;7.13;;
5273;SDS011;56254;50.956;7.010;2023-01-20T11:25:57;18.87;;;7.70;;
5273;SDS011;56254;50.956;7.010;2023-01-20T11:31:11;16.63;;;8.10;;
5273;SDS011;56254;50.956;7.010;2023-01-20T11:33:38;16.43;;;6.70;;
5273;SDS011;56254;50.956;7.010;2023-01-20T11:36:04;18.43;;;7.20;;
5273;SDS011;56254;50.956;7.010;2023-01-20T11:38:42;13.27;;;7.30;;
5273;SDS011;56254;50.956;7.010;2023-01-20T11:41:25;23.50;;;7.33;;
5273;SDS011;56254;50.956;7.010;2023-01-20T11:43:53;23.60;;;7.13;;
5273;SDS011;56254;50.956;7.010;2023-01-20T11:46:22;11.20;;;6.10;;
5273;SDS011;56254;50.956;7.010;2023-01-20T11:48:48;13.20;;;7.27;;
5273;SDS011;56254;50.956;7.010;2023-01-20T11:51:21;18.53;;;8.17;;
5273;SDS011;56254;50.956;7.010;2023-01-20T11:53:49;12.23;;;6.53;;
5273;SDS011;56254;50.956;7.010;2023-01-20T11:58:50;19.47;;;8.00;;
5273;SDS011;56254;50.956;7.010;2023-01-20T12:01:28;24.40;;;7.87;;
5273;SDS011;56254;50.956;7.010;2023-01-20T12:07:00;20.87;;;7.93;;
5273;SDS011;56254;50.956;7.010;2023-01-20T12:09:35;36.07;;;8.30;;
5273;SDS011;56254;50.956;7.010;2023-01-20T12:17:49;11.90;;;7.03;;
5273;SDS011;56254;50.956;7.010;2023-01-20T12:20:41;65.60;;;12.73;;
5273;SDS011;56254;50.956;7.010;2023-01-20T12:25:56;22.87;;;7.50;;
5273;SDS011;56254;50.956;7.010;2023-01-20T12:28:28;20.23;;;7.90;;
5273;SDS011;56254;50.956;7.010;2023-01-20T12:31:13;11.83;;;7.17;;
5273;SDS011;56254;50.956;7.010;2023-01-20T12:33:49;34.90;;;8.40;;
5273;SDS011;56254;50.956;7.010;2023-01-20T12:38:56;29.03;;;8.00;;
5273;SDS011;56254;50.956;7.010;2023-01-20T12:44:37;15.63;;;8.23;;
5273;SDS011;56254;50.956;7.010;2023-01-20T12:55:25;17.10;;;8.60;;
5273;SDS011;56254;50.956;7.010;2023-01-20T12:57:59;17.30;;;8.50;;
5273;SDS011;56254;50.956;7.010;2023-01-20T13:06:27;19.00;;;8.90;;
5273;SDS011;56254;50.956;7.010;2023-01-20T13:18:04;18.03;;;8.57;;
5273;SDS011;56254;50.956;7.010;2023-01-20T13:20:46;19.33;;;9.83;;
5273;SDS011;56254;50.956;7.010;2023-01-20T13:23:13;19.67;;;8.60;;
5273;SDS011;56254;50.956;7.010;2023-01-20T13:25:43;22.93;;;9.93;;
5273;SDS011;56254;50.956;7.010;2023-01-20T13:28:14;15.77;;;8.10;;
5273;SDS011;56254;50.956;7.010;2023-01-20T13:30:44;22.07;;;11.03;;
5273;SDS011;56254;50.956;7.010;2023-01-20T13:33:16;10.63;;;7.40;;
5273;SDS011;56254;50.956;7.010;2023-01-20T13:35:54;15.73;;;8.70;;
5273;SDS011;56254;50.956;7.010;2023-01-20T13:38:23;17.00;;;8.00;;
5273;SDS011;56254;50.956;7.010;2023-01-20T13:40:55;14.10;;;8.13;;
5273;SDS011;56254;50.956;7.010;2023-01-20T13:48:28;19.70;;;8.80;;
5273;SDS011;56254;50.956;7.010;2023-01-20T13:51:00;23.63;;;8.80;;
5273;SDS011;56254;50.956;7.010;2023-01-20T13:53:41;24.80;;;10.37;;
5273;SDS011;56254;50.956;7.010;2023-01-20T13:58:48;21.80;;;10.77;;
5273;SDS011;56254;50.956;7.010;2023-01-20T14:01:14;19.97;;;10.47;;
5273;SDS011;56254;50.956;7.010;2023-01-20T14:03:40;21.40;;;9.90;;
5273;SDS011;56254;50.956;7.010;2023-01-20T14:06:17;25.83;;;11.03;;
5273;SDS011;56254;50.956;7.010;2023-01-20T14:08:47;21.10;;;11.27;;
5273;SDS011;56254;50.956;7.010;2023-01-20T14:11:16;21.33;;;10.90;;
5273;SDS011;56254;50.956;7.010;2023-01-20T14:13:58;14.40;;;9.07;;
5273;SDS011;56254;50.956;7.010;2023-01-20T14:19:00;22.13;;;10.20;;
5273;SDS011;56254;50.956;7.010;2023-01-20T14:21:39;29.40;;;10.37;;
5273;SDS011;56254;50.956;7.010;2023-01-20T14:24:21;20.40;;;9.93;;
5273;SDS011;56254;50.956;7.010;2023-01-20T14:27:06;29.83;;;10.20;;
5273;SDS011;56254;50.956;7.010;2023-01-20T14:29:46;18.67;;;9.47;;
5273;SDS011;56254;50.956;7.010;2023-01-20T14:32:27;21.37;;;10.80;;
5273;SDS011;56254;50.956;7.010;2023-01-20T14:34:56;21.30;;;10.80;;
5273;SDS011;56254;50.956;7.010;2023-01-20T14:37:24;18.30;;;9.20;;
5273;SDS011;56254;50.956;7.010;2023-01-20T14:39:55;20.37;;;10.43;;
5273;SDS011;56254;50.956;7.010;2023-01-20T14:42:23;20.77;;;9.93;;
5273;SDS011;56254;50.956;7.010;2023-01-20T14:44:51;19.33;;;9.33;;
5273;SDS011;56254;50.956;7.010;2023-01-20T14:47:17;15.50;;;8.30;;
5273;SDS011;56254;50.956;7.010;2023-01-20T14:49:46;15.10;;;8.53;;
5273;SDS011;56254;50.956;7.010;2023-01-20T14:52:30;13.90;;;8.03;;
5273;SDS011;56254;50.956;7.010;2023-01-20T14:54:56;13.73;;;7.30;;
5273;SDS011;56254;50.956;7.010;2023-01-20T14:57:24;11.90;;;7.03;;
5273;SDS011;56254;50.956;7.010;2023-01-20T15:02:32;15.83;;;8.43;;
5273;SDS011;56254;50.956;7.010;2023-01-20T15:05:01;20.73;;;9.90;;
5273;SDS011;56254;50.956;7.010;2023-01-20T15:07:36;22.03;;;9.70;;
5273;SDS011;56254;50.956;7.010;2023-01-20T15:10:05;22.07;;;9.10;;
5273;SDS011;56254;50.956;7.010;2023-01-20T15:23:31;27.03;;;10.87;;
5273;SDS011;56254;50.956;7.010;2023-01-20T15:26:09;24.13;;;11.47;;
5273;SDS011;56254;50.956;7.010;2023-01-20T15:28:47;34.13;;;11.10;;
5273;SDS011;56254;50.956;7.010;2023-01-20T15:31:13;27.80;;;11.73;;
5273;SDS011;56254;50.956;7.010;2023-01-20T15:33:40;22.33;;;12.50;;
5273;SDS011;56254;50.956;7.010;2023-01-20T15:38:41;22.60;;;11.30;;
5273;SDS011;56254;50.956;7.010;2023-01-20T15:41:09;31.80;;;13.07;;
5273;SDS011;56254;50.956;7.010;2023-01-20T15:43:36;32.53;;;11.20;;
5273;SDS011;56254;50.956;7.010;2023-01-20T15:46:11;29.37;;;12.37;;
5273;SDS011;56254;50.956;7.010;2023-01-20T15:48:39;31.57;;;13.13;;
5273;SDS011;56254;50.956;7.010;2023-01-20T15:51:05;30.60;;;13.93;;
5273;SDS011;56254;50.956;7.010;2023-01-20T15:53:35;25.20;;;12.47;;
5273;SDS011;56254;50.956;7.010;2023-01-20T15:56:00;26.30;;;12.50;;
5273;SDS011;56254;50.956;7.010;2023-01-20T15:58:28;29.27;;;13.90;;
5273;SDS011;56254;50.956;7.010;2023-01-20T16:00:57;25.63;;;11.93;;
5273;SDS011;56254;50.956;7.010;2023-01-20T16:03:24;29.97;;;13.43;;
5273;SDS011;56254;50.956;7.010;2023-01-20T16:05:52;30.83;;;12.93;;
5273;SDS011;56254;50.956;7.010;2023-01-20T16:08:22;30.70;;;12.60;;
5273;SDS011;56254;50.956;7.010;2023-01-20T16:10:50;39.17;;;13.37;;
5273;SDS011;56254;50.956;7.010;2023-01-20T16:13:17;26.83;;;12.33;;
5273;SDS011;56254;50.956;7.010;2023-01-20T16:15:43;26.93;;;11.60;;
5273;SDS011;56254;50.956;7.010;2023-01-20T16:18:12;23.17;;;12.10;;
5273;SDS011;56254;50.956;7.010;2023-01-20T16:20:43;21.93;;;11.87;;
5273;SDS011;56254;50.956;7.010;2023-01-20T16:23:10;20.00;;;10.20;;
5273;SDS011;56254;50.956;7.010;2023-01-20T16:25:36;18.37;;;9.17;;
5273;SDS011;56254;50.956;7.010;2023-01-20T16:28:18;19.80;;;9.47;;
5273;SDS011;56254;50.956;7.010;2023-01-20T16:30:47;17.30;;;9.80;;
5273;SDS011;56254;50.956;7.010;2023-01-20T16:33:18;20.30;;;9.70;;
5273;SDS011;56254;50.956;7.010;2023-01-20T16:35:46;17.03;;;8.03;;
5273;SDS011;56254;50.956;7.010;2023-01-20T16:38:19;17.83;;;9.77;;
5273;SDS011;56254;50.956;7.010;2023-01-20T16:40:48;23.67;;;11.90;;
5273;SDS011;56254;50.956;7.010;2023-01-20T16:43:21;21.77;;;10.60;;
5273;SDS011;56254;50.956;7.010;2023-01-20T16:45:48;25.90;;;10.30;;
5273;SDS011;56254;50.956;7.010;2023-01-20T16:48:18;14.83;;;8.43;;
5273;SDS011;56254;50.956;7.010;2023-01-20T16:50:45;20.37;;;10.03;;
5273;SDS011;56254;50.956;7.010;2023-01-20T16:53:11;20.80;;;9.43;;
5273;SDS011;56254;50.956;7.010;2023-01-20T16:55:37;20.88;;;10.10;;
5273;SDS011;56254;50.956;7.010;2023-01-20T16:58:06;20.43;;;8.20;;
5273;SDS011;56254;50.956;7.010;2023-01-20T17:00:32;22.07;;;10.30;;
5273;SDS011;56254;50.956;7.010;2023-01-20T17:03:00;19.10;;;10.23;;
5273;SDS011;56254;50.956;7.010;2023-01-20T17:05:26;20.77;;;9.93;;
5273;SDS011;56254;50.956;7.010;2023-01-20T17:07:52;28.20;;;11.33;;
5273;SDS011;56254;50.956;7.010;2023-01-20T17:10:23;21.77;;;10.60;;
5273;SDS011;56254;50.956;7.010;2023-01-20T17:12:51;16.23;;;9.03;;
5273;SDS011;56254;50.956;7.010;2023-01-20T17:15:17;18.27;;;9.55;;